createdAt,value
2019-01-16T00:00:19.888Z,2.37
2019-01-16T00:02:52.583Z,2.72
2019-01-16T00:05:27.938Z,2.65
2019-01-16T00:08:06.368Z,2.45
2019-01-16T00:10:47.878Z,2.58
2019-01-16T00:13:20.569Z,2.40
2019-01-16T00:15:53.257Z,2.30
2019-01-16T00:18:42.970Z,2.72
2019-01-16T00:21:15.739Z,4.05
2019-01-16T00:23:48.427Z,2.50
2019-01-16T00:26:32.775Z,2.92
2019-01-16T00:29:14.833Z,3.45
2019-01-16T00:31:47.512Z,2.95
2019-01-16T00:34:38.610Z,2.92
2019-01-16T00:37:11.291Z,3.12
2019-01-16T00:39:53.022Z,2.60
2019-01-16T00:42:28.248Z,3.10
2019-01-16T00:45:17.633Z,3.02
2019-01-16T00:48:02.455Z,3.02
2019-01-16T00:50:44.033Z,3.45
2019-01-16T00:53:26.034Z,3.00
2019-01-16T00:56:15.117Z,2.65
2019-01-16T00:58:50.797Z,2.65
2019-01-16T01:01:26.189Z,3.30
2019-01-16T01:04:08.095Z,2.90
2019-01-16T01:06:57.627Z,3.25
2019-01-16T01:09:46.914Z,2.98
2019-01-16T01:12:28.711Z,3.00
2019-01-16T01:15:04.175Z,2.87
2019-01-16T01:17:36.853Z,3.55
2019-01-16T01:20:18.495Z,3.25
2019-01-16T01:22:51.174Z,2.98
2019-01-16T01:25:36.066Z,3.35
2019-01-16T01:28:08.785Z,3.52
2019-01-16T01:30:41.479Z,2.83
2019-01-16T01:33:16.943Z,3.37
2019-01-16T01:35:55.169Z,3.35
2019-01-16T01:38:30.372Z,2.80
2019-01-16T01:41:03.078Z,2.95
2019-01-16T01:43:38.719Z,3.47
2019-01-16T01:46:11.414Z,3.72
2019-01-16T01:48:53.206Z,2.80
2019-01-16T01:51:31.713Z,2.87
2019-01-16T01:54:10.947Z,3.35
2019-01-16T01:56:49.468Z,3.33
2019-01-16T01:59:22.141Z,2.90
2019-01-16T02:02:06.594Z,2.17
2019-01-16T02:04:39.295Z,3.40
2019-01-16T02:07:11.991Z,2.17
2019-01-16T02:09:53.931Z,3.33
2019-01-16T02:12:42.013Z,2.42
2019-01-16T02:15:31.315Z,2.87
2019-01-16T02:18:12.535Z,2.47
2019-01-16T02:20:45.231Z,2.60
2019-01-16T02:23:21.025Z,2.52
2019-01-16T02:25:53.769Z,2.75
2019-01-16T02:28:29.507Z,3.15
2019-01-16T02:31:11.146Z,2.50
2019-01-16T02:33:46.944Z,2.22
2019-01-16T02:36:34.568Z,2.52
2019-01-16T02:39:16.096Z,2.37
2019-01-16T02:41:48.817Z,3.30
2019-01-16T02:44:21.497Z,2.50
2019-01-16T02:46:54.186Z,2.65
2019-01-16T02:49:38.927Z,2.80
2019-01-16T02:52:23.702Z,2.25
2019-01-16T02:54:56.399Z,2.50
2019-01-16T02:57:41.174Z,2.62
2019-01-16T03:00:17.183Z,2.50
2019-01-16T03:03:06.254Z,2.50
2019-01-16T03:05:44.722Z,2.30
2019-01-16T03:08:17.443Z,2.30
2019-01-16T03:11:06.646Z,2.20
2019-01-16T03:13:39.342Z,2.60
2019-01-16T03:16:24.369Z,2.58
2019-01-16T03:19:15.449Z,2.60
2019-01-16T03:21:50.646Z,2.10
2019-01-16T03:24:23.346Z,2.20
2019-01-16T03:27:02.315Z,2.80
2019-01-16T03:29:34.996Z,4.62
2019-01-16T03:32:24.487Z,2.90
2019-01-16T03:34:57.168Z,2.30
2019-01-16T03:37:41.626Z,2.70
2019-01-16T03:40:14.415Z,3.35
2019-01-16T03:43:03.911Z,2.62
2019-01-16T03:45:39.360Z,2.67
2019-01-16T03:48:14.540Z,2.30
2019-01-16T03:50:47.211Z,3.00
2019-01-16T03:53:28.693Z,2.67
2019-01-16T03:56:10.424Z,2.47
2019-01-16T03:59:00.281Z,2.85
2019-01-16T04:01:35.785Z,2.60
2019-01-16T04:04:08.525Z,2.65
2019-01-16T04:06:44.000Z,3.00
2019-01-16T04:09:33.374Z,3.20
2019-01-16T04:12:22.951Z,3.77
2019-01-16T04:15:13.592Z,2.22
2019-01-16T04:17:51.926Z,2.87
2019-01-16T04:20:33.191Z,3.27
2019-01-16T04:23:20.955Z,3.33
2019-01-16T04:26:02.751Z,2.75
2019-01-16T04:28:35.767Z,3.15
2019-01-16T04:31:23.749Z,2.90
2019-01-16T04:34:13.611Z,2.90
2019-01-16T04:36:48.883Z,3.40
2019-01-16T04:39:33.509Z,3.30
2019-01-16T04:42:18.020Z,3.33
2019-01-16T04:44:53.519Z,2.95
2019-01-16T04:47:26.208Z,3.35
2019-01-16T04:50:18.026Z,4.17
2019-01-16T04:52:59.845Z,3.55
2019-01-16T04:55:41.087Z,3.12
2019-01-16T04:58:16.277Z,3.45
2019-01-16T05:00:51.473Z,3.50
2019-01-16T05:03:29.959Z,3.90
2019-01-16T05:06:08.418Z,3.15
2019-01-16T05:08:44.130Z,3.83
2019-01-16T05:11:16.809Z,3.77
2019-01-16T05:14:07.329Z,4.15
2019-01-16T05:16:42.521Z,2.87
2019-01-16T05:19:38.578Z,3.60
2019-01-16T05:22:06.741Z,3.87
2019-01-16T05:24:54.739Z,4.10
2019-01-16T05:27:44.297Z,3.90
2019-01-16T05:30:22.791Z,3.90
2019-01-16T05:32:58.240Z,3.83
2019-01-16T05:35:46.216Z,3.67
2019-01-16T05:38:21.674Z,4.60
2019-01-16T05:40:54.364Z,4.47
2019-01-16T05:43:27.030Z,4.28
2019-01-16T05:46:08.751Z,4.97
2019-01-16T05:48:43.940Z,4.62
2019-01-16T05:51:25.787Z,4.10
2019-01-16T05:54:13.410Z,4.78
2019-01-16T05:56:54.706Z,5.33
2019-01-16T05:59:43.781Z,5.22
2019-01-16T06:02:16.460Z,5.25
2019-01-16T06:05:04.414Z,5.22
2019-01-16T06:07:40.582Z,5.03
2019-01-16T06:10:25.978Z,5.70
2019-01-16T06:13:07.385Z,5.22
2019-01-16T06:15:55.453Z,5.05
2019-01-16T06:18:46.271Z,4.90
2019-01-16T06:21:35.594Z,5.65
2019-01-16T06:24:24.936Z,4.85
2019-01-16T06:26:58.606Z,5.60
2019-01-16T06:29:46.356Z,5.17
2019-01-16T06:32:25.372Z,5.17
2019-01-16T06:34:58.046Z,5.37
2019-01-16T06:37:36.994Z,6.03
2019-01-16T06:40:16.564Z,5.25
2019-01-16T06:42:51.746Z,5.35
2019-01-16T06:45:30.057Z,5.47
2019-01-16T06:48:02.846Z,5.45
2019-01-16T06:50:53.661Z,5.30
2019-01-16T06:53:43.106Z,5.00
2019-01-16T06:56:30.916Z,5.70
2019-01-16T06:59:12.609Z,5.10
2019-01-16T07:01:47.896Z,5.17
2019-01-16T07:04:20.592Z,5.62
2019-01-16T07:06:53.295Z,6.42
2019-01-16T07:09:42.385Z,5.12
2019-01-16T07:12:31.770Z,5.40
2019-01-16T07:15:10.141Z,5.85
2019-01-16T07:17:55.069Z,5.53
2019-01-16T07:20:31.456Z,6.53
2019-01-16T07:23:13.555Z,5.37
2019-01-16T07:26:01.387Z,6.05
2019-01-16T07:28:51.028Z,6.40
2019-01-16T07:31:40.470Z,6.45
2019-01-16T07:34:25.211Z,5.53
2019-01-16T07:37:03.571Z,5.45
2019-01-16T07:39:39.013Z,6.97
2019-01-16T07:42:14.464Z,5.92
2019-01-16T07:44:47.159Z,6.65
2019-01-16T07:47:19.833Z,5.15
2019-01-16T07:50:01.804Z,5.65
2019-01-16T07:52:46.551Z,5.75
2019-01-16T07:55:25.077Z,5.53
2019-01-16T07:58:00.501Z,5.35
2019-01-16T08:00:51.357Z,5.83
2019-01-16T08:03:24.046Z,6.37
2019-01-16T08:06:05.572Z,5.85
2019-01-16T08:08:41.026Z,5.92
2019-01-16T08:11:16.292Z,5.30
2019-01-16T08:14:04.459Z,6.35
2019-01-16T08:16:39.906Z,5.70
2019-01-16T08:19:21.682Z,6.00
2019-01-16T08:21:59.973Z,5.22
2019-01-16T08:24:49.326Z,5.95
2019-01-16T08:27:38.517Z,5.65
2019-01-16T08:30:11.290Z,5.78
2019-01-16T08:32:46.765Z,6.03
2019-01-16T08:35:22.221Z,6.83
2019-01-16T08:37:57.455Z,5.70
2019-01-16T08:40:46.603Z,5.80
2019-01-16T08:43:19.283Z,5.58
2019-01-16T08:46:08.549Z,6.28
2019-01-16T08:48:43.990Z,6.03
2019-01-16T08:51:25.846Z,6.30
2019-01-16T08:54:15.248Z,5.85
2019-01-16T08:56:50.698Z,6.35
2019-01-16T08:59:32.362Z,5.83
2019-01-16T09:02:08.003Z,5.40
2019-01-16T09:04:40.705Z,5.40
2019-01-16T09:07:31.253Z,5.95
2019-01-16T09:10:19.300Z,5.15
2019-01-16T09:13:10.203Z,5.17
2019-01-16T09:15:57.955Z,6.10
2019-01-16T09:18:36.821Z,6.12
2019-01-16T09:21:12.519Z,4.95
2019-01-16T09:23:48.006Z,5.50
2019-01-16T09:26:26.304Z,4.85
2019-01-16T09:29:04.535Z,5.22
2019-01-16T09:31:39.990Z,4.20
2019-01-16T09:34:12.657Z,4.20
2019-01-16T09:36:47.970Z,3.77
2019-01-16T09:39:20.642Z,4.42
2019-01-16T09:42:09.690Z,4.03
2019-01-16T09:44:42.369Z,3.92
2019-01-16T09:47:31.352Z,4.65
2019-01-16T09:50:06.616Z,5.60
2019-01-16T09:52:39.328Z,4.05
2019-01-16T09:55:21.336Z,3.65
2019-01-16T09:58:02.654Z,3.22
2019-01-16T10:00:35.319Z,3.08
2019-01-16T10:03:16.600Z,4.05
2019-01-16T10:05:58.348Z,4.25
2019-01-16T10:08:33.645Z,3.42
2019-01-16T10:11:22.906Z,4.00
2019-01-16T10:14:01.580Z,4.15
2019-01-16T10:16:36.957Z,4.30
2019-01-16T10:19:12.608Z,4.28
2019-01-16T10:22:02.361Z,3.85
2019-01-16T10:24:46.896Z,3.30
2019-01-16T10:27:22.356Z,4.62
2019-01-16T10:30:00.605Z,3.45
2019-01-16T10:32:48.381Z,4.00
2019-01-16T10:35:26.847Z,4.00
2019-01-16T10:38:08.170Z,3.87
2019-01-16T10:40:56.055Z,3.65
2019-01-16T10:43:31.485Z,4.55
2019-01-16T10:46:07.235Z,4.45
2019-01-16T10:48:49.522Z,4.95
2019-01-16T10:51:33.851Z,5.40
2019-01-16T10:54:09.397Z,4.17
2019-01-16T10:56:50.963Z,3.35
2019-01-16T10:59:23.627Z,3.20
2019-01-16T11:01:56.308Z,3.55
2019-01-16T11:04:41.072Z,3.65
2019-01-16T11:07:16.253Z,3.80
2019-01-16T11:09:48.928Z,4.22
2019-01-16T11:12:36.652Z,3.87
2019-01-16T11:15:09.685Z,3.87
2019-01-16T11:17:42.365Z,4.85
2019-01-16T11:20:21.095Z,4.37
2019-01-16T11:23:10.141Z,4.22
2019-01-16T11:25:42.806Z,4.30
2019-01-16T11:28:30.566Z,3.33
2019-01-16T11:31:22.376Z,4.12
2019-01-16T11:33:57.742Z,4.10
2019-01-16T11:36:36.487Z,3.95
2019-01-16T11:39:09.267Z,3.75
2019-01-16T11:41:42.054Z,4.22
2019-01-16T11:44:20.399Z,3.98
2019-01-16T11:46:53.080Z,4.60
2019-01-16T11:49:37.834Z,4.28
2019-01-16T11:52:10.524Z,5.33
2019-01-16T11:54:55.528Z,4.53
2019-01-16T11:57:31.038Z,4.15
2019-01-16T12:00:07.069Z,4.70
2019-01-16T12:02:39.828Z,5.00
2019-01-16T12:05:18.563Z,4.25
2019-01-16T12:07:51.240Z,5.00
2019-01-16T12:10:40.395Z,3.90
2019-01-16T12:13:19.155Z,4.40
2019-01-16T12:15:54.403Z,4.85
2019-01-16T12:18:39.164Z,4.37
2019-01-16T12:21:11.839Z,3.60
2019-01-16T12:23:50.050Z,4.65
2019-01-16T12:26:39.344Z,4.33
2019-01-16T12:29:12.016Z,4.17
2019-01-16T12:31:53.607Z,4.80
2019-01-16T12:34:28.784Z,4.70
2019-01-16T12:37:04.263Z,4.12
2019-01-16T12:39:45.823Z,4.72
2019-01-16T12:42:30.579Z,5.05
2019-01-16T12:45:03.271Z,4.92
2019-01-16T12:47:54.001Z,3.72
2019-01-16T12:50:32.709Z,3.92
2019-01-16T12:53:14.636Z,4.60
2019-01-16T12:55:53.129Z,4.58
2019-01-16T12:58:40.941Z,4.12
2019-01-16T13:01:31.795Z,4.20
2019-01-16T13:04:19.571Z,4.47
2019-01-16T13:06:55.609Z,5.08
2019-01-16T13:09:43.124Z,4.50
2019-01-16T13:12:24.832Z,4.80
2019-01-16T13:15:14.391Z,4.65
2019-01-16T13:17:49.986Z,4.25
2019-01-16T13:20:28.461Z,4.80
2019-01-16T13:23:13.276Z,5.47
2019-01-16T13:25:57.815Z,5.03
2019-01-16T13:28:47.286Z,5.10
2019-01-16T13:31:19.986Z,3.80
2019-01-16T13:33:55.408Z,5.22
2019-01-16T13:36:34.271Z,4.53
2019-01-16T13:39:08.449Z,4.53
2019-01-16T13:41:44.177Z,4.05
2019-01-16T13:44:16.841Z,4.20
2019-01-16T13:47:04.446Z,3.95
2019-01-16T13:49:37.119Z,4.70
2019-01-16T13:52:19.134Z,5.22
2019-01-16T13:55:00.724Z,6.00
2019-01-16T13:57:42.496Z,5.62
2019-01-16T14:00:18.454Z,7.80
2019-01-16T14:02:54.089Z,5.42
2019-01-16T14:05:35.424Z,4.97
2019-01-16T14:08:08.217Z,4.37
2019-01-16T14:10:46.561Z,4.72
2019-01-16T14:13:36.267Z,3.60
2019-01-16T14:16:25.783Z,4.80
2019-01-16T14:18:58.557Z,4.92
2019-01-16T14:21:31.281Z,5.12
2019-01-16T14:24:06.442Z,5.15
2019-01-16T14:26:39.143Z,4.87
2019-01-16T14:29:11.995Z,4.95
2019-01-16T14:31:44.683Z,4.53
2019-01-16T14:34:33.952Z,4.92
2019-01-16T14:37:25.331Z,5.20
2019-01-16T14:40:14.351Z,4.30
2019-01-16T14:42:47.050Z,5.08
2019-01-16T14:45:25.378Z,4.80
2019-01-16T14:47:58.062Z,4.58
2019-01-16T14:53:41.237Z,4.60
2019-01-16T14:56:13.891Z,4.75
2019-01-16T14:58:52.612Z,4.50
2019-01-16T15:01:25.283Z,4.72
2019-01-16T15:04:03.924Z,4.80
2019-01-16T15:06:39.262Z,5.20
2019-01-16T15:09:21.071Z,4.40
2019-01-16T15:12:05.596Z,5.00
2019-01-16T15:14:38.275Z,5.15
2019-01-16T15:17:28.896Z,6.55
2019-01-16T15:20:01.580Z,5.55
2019-01-16T15:22:37.051Z,6.05
2019-01-16T15:25:26.430Z,4.22
2019-01-16T15:27:59.107Z,4.40
2019-01-16T15:30:37.709Z,5.30
2019-01-16T15:33:16.399Z,4.70
2019-01-16T15:35:49.071Z,5.65
2019-01-16T15:38:38.265Z,5.22
2019-01-16T15:41:29.074Z,4.40
2019-01-16T15:44:01.771Z,5.65
2019-01-16T15:46:43.354Z,4.90
2019-01-16T15:49:32.578Z,4.72
2019-01-16T15:52:14.232Z,4.53
2019-01-16T15:55:05.920Z,5.12
2019-01-16T15:57:41.557Z,4.62
2019-01-16T16:00:20.273Z,5.22
2019-01-16T16:02:58.758Z,5.85
2019-01-16T16:05:43.135Z,4.72
2019-01-16T16:08:18.573Z,5.35
2019-01-16T16:10:53.771Z,4.25
2019-01-16T16:13:26.442Z,5.15
2019-01-16T16:16:01.681Z,5.45
2019-01-16T16:18:43.180Z,4.92
2019-01-16T16:21:18.624Z,4.17
2019-01-16T16:23:51.289Z,4.62
2019-01-16T16:26:24.204Z,4.53
2019-01-16T16:29:05.815Z,4.17
2019-01-16T16:31:55.206Z,4.17
2019-01-16T16:34:33.651Z,4.50
2019-01-16T16:37:06.414Z,5.03
2019-01-16T16:39:45.799Z,7.72
2019-01-16T16:42:24.376Z,16.50
2019-01-16T16:44:57.057Z,15.72
2019-01-16T16:47:44.679Z,12.05
2019-01-16T16:50:23.000Z,10.18
2019-01-16T16:52:58.485Z,5.83
2019-01-16T16:55:31.159Z,6.10
2019-01-16T16:58:03.839Z,5.42
2019-01-16T17:00:37.614Z,5.20
2019-01-16T17:03:10.408Z,5.05
2019-01-16T17:05:48.622Z,5.47
2019-01-16T17:08:37.890Z,4.30
2019-01-16T17:11:10.664Z,4.03
2019-01-16T17:13:48.850Z,4.55
2019-01-16T17:16:23.364Z,4.30
2019-01-16T17:19:04.840Z,4.00
2019-01-16T17:21:37.510Z,4.30
2019-01-16T17:24:26.805Z,4.50
2019-01-16T17:27:00.532Z,4.37
2019-01-16T17:29:33.230Z,5.10
2019-01-16T17:32:08.933Z,4.87
2019-01-16T17:34:47.143Z,5.30
2019-01-16T17:37:29.058Z,6.45
2019-01-16T17:40:07.720Z,5.70
2019-01-16T17:42:40.431Z,6.95
2019-01-16T17:45:31.529Z,6.17
2019-01-16T17:48:16.547Z,6.42
2019-01-16T17:50:57.989Z,7.15
2019-01-16T17:53:47.656Z,8.75
2019-01-16T17:56:20.332Z,8.28
2019-01-16T17:59:01.887Z,9.30
2019-01-16T18:01:43.773Z,10.20
2019-01-16T18:04:16.462Z,9.43
2019-01-16T18:07:05.650Z,9.40
2019-01-16T18:09:47.626Z,9.43
2019-01-16T18:12:20.291Z,8.70
2019-01-16T18:15:05.067Z,9.68
2019-01-16T18:17:50.094Z,7.85
2019-01-16T18:20:34.924Z,8.08
2019-01-16T18:23:24.210Z,8.28
2019-01-16T18:25:59.689Z,7.92
2019-01-16T18:28:32.360Z,8.38
2019-01-16T18:31:07.856Z,8.60
2019-01-16T18:33:40.528Z,7.80
2019-01-16T18:36:13.545Z,9.33
2019-01-16T18:38:46.231Z,7.65
2019-01-16T18:41:37.059Z,8.75
2019-01-16T18:44:15.554Z,7.35
2019-01-16T18:46:48.263Z,8.35
2019-01-16T18:49:20.961Z,7.90
2019-01-16T18:52:10.491Z,8.60
2019-01-16T18:54:49.207Z,7.75
2019-01-16T18:57:22.003Z,7.75
2019-01-16T18:59:57.206Z,10.70
2019-01-16T19:02:38.974Z,12.73
2019-01-16T19:05:23.598Z,15.60
2019-01-16T19:08:11.608Z,9.28
2019-01-16T19:10:50.021Z,9.53
2019-01-16T19:13:37.839Z,10.45
2019-01-16T19:16:19.113Z,11.57
2019-01-16T19:19:03.905Z,11.88
2019-01-16T19:21:39.377Z,9.65
2019-01-16T19:24:23.986Z,10.38
2019-01-16T19:27:05.397Z,13.80
2019-01-16T19:29:38.049Z,14.93
2019-01-16T19:32:27.220Z,16.75
2019-01-16T19:35:08.776Z,10.50
2019-01-16T19:37:58.462Z,17.27
2019-01-16T19:40:49.313Z,10.90
2019-01-16T19:43:31.229Z,12.47
2019-01-16T19:46:04.293Z,17.73
2019-01-16T19:48:39.814Z,9.45
2019-01-16T19:51:12.483Z,11.35
2019-01-16T19:54:00.351Z,11.57
2019-01-16T19:56:49.391Z,17.32
2019-01-16T19:59:22.057Z,10.45
2019-01-16T20:01:57.921Z,9.03
2019-01-16T20:04:36.897Z,9.73
2019-01-16T20:07:24.474Z,11.12
2019-01-16T20:10:07.138Z,11.55
2019-01-16T20:12:54.917Z,11.00
2019-01-16T20:15:30.283Z,10.38
2019-01-16T20:18:06.314Z,10.30
2019-01-16T20:20:47.792Z,11.63
2019-01-16T20:23:29.260Z,12.10
2019-01-16T20:26:18.461Z,11.00
2019-01-16T20:28:51.151Z,11.30
2019-01-16T20:31:36.141Z,10.43
2019-01-16T20:34:08.816Z,10.82
2019-01-16T20:36:41.565Z,10.65
2019-01-16T20:39:19.822Z,11.70
2019-01-16T20:41:55.399Z,10.90
2019-01-16T20:44:44.912Z,9.65
2019-01-16T20:47:35.566Z,9.78
2019-01-16T20:50:14.801Z,10.65
2019-01-16T20:52:59.427Z,10.65
2019-01-16T20:55:45.823Z,9.43
2019-01-16T20:58:16.079Z,8.93
2019-01-16T21:00:58.602Z,10.03
2019-01-16T21:03:47.956Z,9.53
2019-01-16T21:06:37.368Z,10.65
2019-01-16T21:09:15.850Z,10.10
2019-01-16T21:11:48.557Z,10.85
2019-01-16T21:14:31.117Z,11.57
2019-01-16T21:17:09.591Z,10.78
2019-01-16T21:19:57.164Z,10.45
2019-01-16T21:22:29.844Z,11.48
2019-01-16T21:25:16.401Z,10.90
2019-01-16T21:27:51.727Z,12.90
2019-01-16T21:30:42.590Z,13.20
2019-01-16T21:33:31.624Z,10.70
2019-01-16T21:36:16.463Z,10.40
2019-01-16T21:38:51.733Z,10.50
2019-01-16T21:41:24.417Z,10.13
2019-01-16T21:43:59.927Z,11.10
2019-01-16T21:46:35.356Z,9.90
2019-01-16T21:49:24.601Z,10.68
2019-01-16T21:51:57.276Z,10.68
2019-01-16T21:54:30.050Z,12.03
2019-01-16T21:57:24.747Z,10.72
2019-01-16T22:00:06.668Z,10.90
2019-01-16T22:02:55.688Z,11.85
2019-01-16T22:05:28.373Z,11.60
2019-01-16T22:08:12.877Z,11.75
2019-01-16T22:10:48.079Z,11.10
2019-01-16T22:13:35.655Z,11.88
2019-01-16T22:16:24.718Z,11.63
2019-01-16T22:19:03.236Z,13.20
2019-01-16T22:21:47.655Z,10.98
2019-01-16T22:24:36.801Z,12.40
2019-01-16T22:27:09.490Z,10.85
2019-01-16T22:29:58.653Z,12.10
2019-01-16T22:32:47.958Z,11.25
2019-01-16T22:35:35.814Z,10.50
2019-01-16T22:38:17.271Z,10.15
2019-01-16T22:41:06.552Z,11.35
2019-01-16T22:43:45.022Z,12.00
2019-01-16T22:46:20.214Z,12.93
2019-01-16T22:48:58.711Z,11.03
2019-01-16T22:51:34.288Z,12.55
2019-01-16T22:54:22.166Z,12.05
2019-01-16T22:57:03.954Z,13.00
2019-01-16T22:59:36.622Z,12.20
2019-01-16T23:02:21.248Z,12.00
2019-01-16T23:04:54.301Z,12.45
2019-01-16T23:07:29.475Z,14.28
2019-01-16T23:10:07.933Z,11.63
2019-01-16T23:12:43.659Z,13.48
2019-01-16T23:15:18.834Z,12.93
2019-01-16T23:17:51.504Z,13.00
2019-01-16T23:20:27.047Z,13.70
2019-01-16T23:23:16.332Z,11.95
2019-01-16T23:25:51.983Z,13.40
2019-01-16T23:28:24.664Z,12.30
2019-01-16T23:31:14.207Z,14.60
2019-01-16T23:34:03.609Z,13.95
2019-01-16T23:36:52.977Z,13.25
2019-01-16T23:39:34.618Z,12.45
2019-01-16T23:42:19.675Z,13.43
2019-01-16T23:45:08.816Z,12.35
2019-01-16T23:47:44.509Z,13.70
2019-01-16T23:50:33.960Z,13.58
2019-01-16T23:53:23.028Z,12.63
2019-01-16T23:56:01.483Z,13.80
2019-01-16T23:58:34.256Z,14.30
